Strona główna
METAR-TAF:

METAR-TAF

Lotnisko :

Le Mans, Francja

Szerokość geograficzna: 47-56N, Długość geograficzna: 000-12E, wysokość: 59 m

Aktualna obserwacja pogody

Raport powstał 42 minut temu, godzina 15:00 UTC
Wiatr 7 kt od północno-północny zachód, zmienny między zachodnio-północny zachód i północno-północny wschód
Temperatura 16°C
Wilgotność 59%
Ciśnienie 1003 hPa
Widzialność 10 km lub więcej
Rozproszone chmury na wysokości 3500 ft
Przerywane chmury na wysokości 4500 ft
Zachmurzenie całkowite na wysokości 5400 ft

METAR: LFRM 041500Z AUTO 34007KT 300V020 9999 SCT035 BKN045 OVC054 16/08 Q1003

czas: 17:42 (15:42 UTC)


TAF: brakujący

Obserwacja i prognoza pogody dla ponad 4000 lotnisk (raport METAR i TAF).

Dostępne stacje oznaczono żółtymi i czerwonymi punktami na mapie.

Najedź kursorem aby zobaczyć nazwę stacji.

Kliknij aby zobaczyć obserwacje i prognozy pogody.

Aby zmienić mapę: kliknij na zielony przycisk z czarnym krzyżykiem, aby powiększyć; na zielony przycisk z myślnikiem, aby pomniejszyć; na zielone strzałki, aby przejść do map sąsiednich.


METAR-TAF: